sensor_id;sensor_type;location;lat;lon;timestamp;P1;durP1;ratioP1;P2;durP2;ratioP2
51949;SDS011;37974;53.218;6.640;2023-03-01T00:02:02;9.82;;;6.68;;
51949;SDS011;37974;53.218;6.640;2023-03-01T00:04:29;11.88;;;7.30;;
51949;SDS011;37974;53.218;6.640;2023-03-01T00:06:55;17.95;;;8.18;;
51949;SDS011;37974;53.218;6.640;2023-03-01T00:09:22;104.70;;;10.23;;
51949;SDS011;37974;53.218;6.640;2023-03-01T00:11:47;38.22;;;9.60;;
51949;SDS011;37974;53.218;6.640;2023-03-01T00:14:14;102.57;;;9.85;;
51949;SDS011;37974;53.218;6.640;2023-03-01T00:16:43;85.15;;;9.27;;
51949;SDS011;37974;53.218;6.640;2023-03-01T00:19:11;111.28;;;10.38;;
51949;SDS011;37974;53.218;6.640;2023-03-01T00:21:39;125.43;;;10.35;;
51949;SDS011;37974;53.218;6.640;2023-03-01T00:24:05;53.42;;;12.38;;
51949;SDS011;37974;53.218;6.640;2023-03-01T00:26:30;12.20;;;9.02;;
51949;SDS011;37974;53.218;6.640;2023-03-01T00:28:57;12.98;;;9.70;;
51949;SDS011;37974;53.218;6.640;2023-03-01T00:31:24;11.40;;;8.75;;
51949;SDS011;37974;53.218;6.640;2023-03-01T00:33:54;22.73;;;9.77;;
51949;SDS011;37974;53.218;6.640;2023-03-01T00:36:22;14.77;;;9.02;;
51949;SDS011;37974;53.218;6.640;2023-03-01T00:38:53;30.58;;;14.65;;
51949;SDS011;37974;53.218;6.640;2023-03-01T00:41:19;77.57;;;16.92;;
51949;SDS011;37974;53.218;6.640;2023-03-01T00:43:48;43.13;;;17.20;;
51949;SDS011;37974;53.218;6.640;2023-03-01T00:46:16;145.65;;;17.27;;
51949;SDS011;37974;53.218;6.640;2023-03-01T00:48:46;108.18;;;18.98;;
51949;SDS011;37974;53.218;6.640;2023-03-01T00:51:14;171.82;;;17.95;;
51949;SDS011;37974;53.218;6.640;2023-03-01T00:53:42;177.23;;;15.68;;
51949;SDS011;37974;53.218;6.640;2023-03-01T00:56:09;154.93;;;13.80;;
51949;SDS011;37974;53.218;6.640;2023-03-01T00:58:36;82.50;;;11.80;;
51949;SDS011;37974;53.218;6.640;2023-03-01T01:01:09;90.20;;;13.05;;
51949;SDS011;37974;53.218;6.640;2023-03-01T01:03:44;148.45;;;14.05;;
51949;SDS011;37974;53.218;6.640;2023-03-01T01:06:13;30.30;;;10.65;;
51949;SDS011;37974;53.218;6.640;2023-03-01T01:08:40;176.13;;;14.57;;
51949;SDS011;37974;53.218;6.640;2023-03-01T01:11:08;193.82;;;17.08;;
51949;SDS011;37974;53.218;6.640;2023-03-01T01:13:34;190.73;;;15.30;;
51949;SDS011;37974;53.218;6.640;2023-03-01T01:16:01;160.88;;;15.25;;
51949;SDS011;37974;53.218;6.640;2023-03-01T01:18:27;130.18;;;14.35;;
51949;SDS011;37974;53.218;6.640;2023-03-01T01:20:52;52.50;;;11.65;;
51949;SDS011;37974;53.218;6.640;2023-03-01T01:23:18;29.17;;;11.18;;
51949;SDS011;37974;53.218;6.640;2023-03-01T01:25:44;63.85;;;10.57;;
51949;SDS011;37974;53.218;6.640;2023-03-01T01:28:10;47.22;;;10.40;;
51949;SDS011;37974;53.218;6.640;2023-03-01T01:30:35;91.63;;;11.77;;
51949;SDS011;37974;53.218;6.640;2023-03-01T01:33:01;180.35;;;15.18;;
51949;SDS011;37974;53.218;6.640;2023-03-01T01:35:27;123.97;;;12.85;;
51949;SDS011;37974;53.218;6.640;2023-03-01T01:37:52;111.63;;;14.02;;
51949;SDS011;37974;53.218;6.640;2023-03-01T01:40:18;146.85;;;14.88;;
51949;SDS011;37974;53.218;6.640;2023-03-01T01:42:44;98.85;;;11.73;;
51949;SDS011;37974;53.218;6.640;2023-03-01T01:47:59;60.88;;;11.30;;
51949;SDS011;37974;53.218;6.640;2023-03-01T01:50:30;77.65;;;12.60;;
51949;SDS011;37974;53.218;6.640;2023-03-01T01:53:03;66.20;;;12.85;;
51949;SDS011;37974;53.218;6.640;2023-03-01T01:55:33;33.45;;;11.70;;
51949;SDS011;37974;53.218;6.640;2023-03-01T01:58:02;19.77;;;12.90;;
51949;SDS011;37974;53.218;6.640;2023-03-01T02:00:32;23.08;;;14.77;;
51949;SDS011;37974;53.218;6.640;2023-03-01T02:02:59;38.03;;;14.68;;
51949;SDS011;37974;53.218;6.640;2023-03-01T02:08:16;17.10;;;12.68;;
51949;SDS011;37974;53.218;6.640;2023-03-01T02:10:44;14.50;;;11.23;;
51949;SDS011;37974;53.218;6.640;2023-03-01T02:13:11;15.93;;;11.60;;
51949;SDS011;37974;53.218;6.640;2023-03-01T02:15:38;62.15;;;11.93;;
51949;SDS011;37974;53.218;6.640;2023-03-01T02:18:06;189.80;;;17.40;;
51949;SDS011;37974;53.218;6.640;2023-03-01T02:20:35;64.47;;;13.93;;
51949;SDS011;37974;53.218;6.640;2023-03-01T02:23:03;33.60;;;11.27;;
51949;SDS011;37974;53.218;6.640;2023-03-01T02:30:42;160.65;;;15.23;;
51949;SDS011;37974;53.218;6.640;2023-03-01T02:33:31;184.48;;;15.45;;
51949;SDS011;37974;53.218;6.640;2023-03-01T02:35:59;185.77;;;14.85;;
51949;SDS011;37974;53.218;6.640;2023-03-01T02:38:26;200.05;;;13.07;;
51949;SDS011;37974;53.218;6.640;2023-03-01T02:40:53;332.88;;;17.88;;
51949;SDS011;37974;53.218;6.640;2023-03-01T02:43:22;234.90;;;16.75;;
51949;SDS011;37974;53.218;6.640;2023-03-01T02:45:53;129.55;;;11.65;;
51949;SDS011;37974;53.218;6.640;2023-03-01T02:48:23;165.13;;;12.75;;
51949;SDS011;37974;53.218;6.640;2023-03-01T02:50:57;144.25;;;11.98;;
51949;SDS011;37974;53.218;6.640;2023-03-01T02:53:43;175.15;;;12.93;;
51949;SDS011;37974;53.218;6.640;2023-03-01T02:56:17;97.85;;;10.77;;
51949;SDS011;37974;53.218;6.640;2023-03-01T02:58:43;256.33;;;13.85;;
51949;SDS011;37974;53.218;6.640;2023-03-01T03:01:13;127.38;;;10.43;;
51949;SDS011;37974;53.218;6.640;2023-03-01T03:03:40;196.48;;;14.02;;
51949;SDS011;37974;53.218;6.640;2023-03-01T03:06:06;165.25;;;13.35;;
51949;SDS011;37974;53.218;6.640;2023-03-01T03:08:32;116.50;;;12.60;;
51949;SDS011;37974;53.218;6.640;2023-03-01T03:10:57;116.20;;;12.85;;
51949;SDS011;37974;53.218;6.640;2023-03-01T03:13:23;87.05;;;12.18;;
51949;SDS011;37974;53.218;6.640;2023-03-01T03:15:53;124.43;;;15.18;;
51949;SDS011;37974;53.218;6.640;2023-03-01T03:18:20;123.38;;;13.63;;
51949;SDS011;37974;53.218;6.640;2023-03-01T03:20:46;259.40;;;16.45;;
51949;SDS011;37974;53.218;6.640;2023-03-01T03:23:13;302.90;;;19.10;;
51949;SDS011;37974;53.218;6.640;2023-03-01T03:25:39;429.58;;;22.10;;
51949;SDS011;37974;53.218;6.640;2023-03-01T03:28:05;519.70;;;26.27;;
51949;SDS011;37974;53.218;6.640;2023-03-01T03:30:36;152.00;;;15.35;;
51949;SDS011;37974;53.218;6.640;2023-03-01T03:33:04;34.60;;;12.57;;
51949;SDS011;37974;53.218;6.640;2023-03-01T03:35:31;16.58;;;11.50;;
51949;SDS011;37974;53.218;6.640;2023-03-01T03:38:00;13.70;;;10.40;;
51949;SDS011;37974;53.218;6.640;2023-03-01T03:40:33;15.07;;;10.30;;
51949;SDS011;37974;53.218;6.640;2023-03-01T03:43:03;40.30;;;17.58;;
51949;SDS011;37974;53.218;6.640;2023-03-01T03:45:30;147.95;;;19.83;;
51949;SDS011;37974;53.218;6.640;2023-03-01T03:47:58;140.90;;;20.65;;
51949;SDS011;37974;53.218;6.640;2023-03-01T03:50:25;206.18;;;23.85;;
51949;SDS011;37974;53.218;6.640;2023-03-01T03:52:51;40.30;;;17.98;;
51949;SDS011;37974;53.218;6.640;2023-03-01T03:55:17;46.00;;;21.08;;
51949;SDS011;37974;53.218;6.640;2023-03-01T03:57:44;197.65;;;20.38;;
51949;SDS011;37974;53.218;6.640;2023-03-01T04:00:20;201.27;;;19.33;;
51949;SDS011;37974;53.218;6.640;2023-03-01T04:02:49;190.35;;;19.83;;
51949;SDS011;37974;53.218;6.640;2023-03-01T04:05:16;174.88;;;18.40;;
51949;SDS011;37974;53.218;6.640;2023-03-01T04:07:44;155.43;;;17.35;;
51949;SDS011;37974;53.218;6.640;2023-03-01T04:10:11;61.40;;;15.73;;
51949;SDS011;37974;53.218;6.640;2023-03-01T04:12:38;47.28;;;16.45;;
51949;SDS011;37974;53.218;6.640;2023-03-01T04:15:05;23.35;;;15.45;;
51949;SDS011;37974;53.218;6.640;2023-03-01T04:17:39;23.63;;;15.13;;
51949;SDS011;37974;53.218;6.640;2023-03-01T04:20:06;43.00;;;17.92;;
51949;SDS011;37974;53.218;6.640;2023-03-01T04:22:34;30.63;;;17.63;;
51949;SDS011;37974;53.218;6.640;2023-03-01T04:25:00;39.70;;;17.60;;
51949;SDS011;37974;53.218;6.640;2023-03-01T04:27:27;248.57;;;22.65;;
51949;SDS011;37974;53.218;6.640;2023-03-01T04:29:52;272.48;;;22.23;;
51949;SDS011;37974;53.218;6.640;2023-03-01T04:32:18;532.92;;;28.55;;
51949;SDS011;37974;53.218;6.640;2023-03-01T04:34:44;518.20;;;25.00;;
51949;SDS011;37974;53.218;6.640;2023-03-01T04:37:09;421.27;;;24.67;;
51949;SDS011;37974;53.218;6.640;2023-03-01T04:39:35;90.50;;;15.60;;
51949;SDS011;37974;53.218;6.640;2023-03-01T04:42:10;165.00;;;18.15;;
51949;SDS011;37974;53.218;6.640;2023-03-01T04:44:36;117.22;;;17.25;;
51949;SDS011;37974;53.218;6.640;2023-03-01T04:47:02;172.07;;;19.35;;
51949;SDS011;37974;53.218;6.640;2023-03-01T04:49:28;252.13;;;20.02;;
51949;SDS011;37974;53.218;6.640;2023-03-01T04:51:54;231.85;;;19.20;;
51949;SDS011;37974;53.218;6.640;2023-03-01T04:54:20;144.70;;;17.40;;
51949;SDS011;37974;53.218;6.640;2023-03-01T04:56:45;92.53;;;15.73;;
51949;SDS011;37974;53.218;6.640;2023-03-01T04:59:11;69.43;;;15.88;;
51949;SDS011;37974;53.218;6.640;2023-03-01T05:01:37;181.80;;;18.00;;
51949;SDS011;37974;53.218;6.640;2023-03-01T05:04:03;132.25;;;15.73;;
51949;SDS011;37974;53.218;6.640;2023-03-01T05:06:30;134.23;;;15.63;;
51949;SDS011;37974;53.218;6.640;2023-03-01T05:08:56;171.25;;;17.48;;
51949;SDS011;37974;53.218;6.640;2023-03-01T05:11:22;88.60;;;14.15;;
51949;SDS011;37974;53.218;6.640;2023-03-01T05:13:48;185.02;;;19.48;;
51949;SDS011;37974;53.218;6.640;2023-03-01T05:16:19;99.70;;;15.57;;
51949;SDS011;37974;53.218;6.640;2023-03-01T05:18:45;41.25;;;14.85;;
51949;SDS011;37974;53.218;6.640;2023-03-01T05:21:12;80.93;;;15.77;;
51949;SDS011;37974;53.218;6.640;2023-03-01T05:23:41;96.95;;;16.98;;
51949;SDS011;37974;53.218;6.640;2023-03-01T05:26:06;144.15;;;18.58;;
51949;SDS011;37974;53.218;6.640;2023-03-01T05:28:33;128.88;;;16.92;;
51949;SDS011;37974;53.218;6.640;2023-03-01T05:30:59;195.77;;;19.20;;
51949;SDS011;37974;53.218;6.640;2023-03-01T05:33:24;127.38;;;18.30;;
51949;SDS011;37974;53.218;6.640;2023-03-01T05:35:51;155.13;;;18.88;;
51949;SDS011;37974;53.218;6.640;2023-03-01T05:38:18;116.45;;;18.20;;
51949;SDS011;37974;53.218;6.640;2023-03-01T05:40:46;145.10;;;18.25;;
51949;SDS011;37974;53.218;6.640;2023-03-01T05:43:13;221.02;;;19.77;;
51949;SDS011;37974;53.218;6.640;2023-03-01T05:45:40;211.00;;;19.23;;
51949;SDS011;37974;53.218;6.640;2023-03-01T05:48:07;142.63;;;19.10;;
51949;SDS011;37974;53.218;6.640;2023-03-01T05:50:34;162.50;;;17.92;;
51949;SDS011;37974;53.218;6.640;2023-03-01T05:53:03;284.67;;;21.02;;
51949;SDS011;37974;53.218;6.640;2023-03-01T05:55:33;176.30;;;18.83;;
51949;SDS011;37974;53.218;6.640;2023-03-01T05:58:01;94.10;;;15.80;;
51949;SDS011;37974;53.218;6.640;2023-03-01T06:00:28;80.07;;;15.73;;
51949;SDS011;37974;53.218;6.640;2023-03-01T06:02:55;48.65;;;14.82;;
51949;SDS011;37974;53.218;6.640;2023-03-01T06:05:22;66.55;;;14.57;;
51949;SDS011;37974;53.218;6.640;2023-03-01T06:07:48;94.22;;;15.57;;
51949;SDS011;37974;53.218;6.640;2023-03-01T06:10:15;154.60;;;17.20;;
51949;SDS011;37974;53.218;6.640;2023-03-01T06:12:41;169.77;;;16.50;;
51949;SDS011;37974;53.218;6.640;2023-03-01T06:15:09;204.43;;;17.27;;
51949;SDS011;37974;53.218;6.640;2023-03-01T06:17:36;144.75;;;18.73;;
51949;SDS011;37974;53.218;6.640;2023-03-01T06:20:05;149.35;;;19.60;;
51949;SDS011;37974;53.218;6.640;2023-03-01T06:22:34;162.15;;;19.25;;
51949;SDS011;37974;53.218;6.640;2023-03-01T06:25:00;163.52;;;19.38;;
51949;SDS011;37974;53.218;6.640;2023-03-01T06:27:26;85.40;;;17.98;;
51949;SDS011;37974;53.218;6.640;2023-03-01T06:29:51;188.35;;;21.92;;
51949;SDS011;37974;53.218;6.640;2023-03-01T06:32:17;99.28;;;20.80;;
51949;SDS011;37974;53.218;6.640;2023-03-01T06:34:43;198.82;;;22.52;;
51949;SDS011;37974;53.218;6.640;2023-03-01T06:37:09;251.82;;;25.30;;
51949;SDS011;37974;53.218;6.640;2023-03-01T06:39:35;228.80;;;25.23;;
51949;SDS011;37974;53.218;6.640;2023-03-01T06:42:00;158.55;;;21.13;;
51949;SDS011;37974;53.218;6.640;2023-03-01T06:44:26;72.82;;;18.08;;
51949;SDS011;37974;53.218;6.640;2023-03-01T06:46:52;49.60;;;15.82;;
51949;SDS011;37974;53.218;6.640;2023-03-01T06:49:18;206.70;;;20.70;;
51949;SDS011;37974;53.218;6.640;2023-03-01T06:51:44;85.97;;;18.23;;
51949;SDS011;37974;53.218;6.640;2023-03-01T06:54:11;254.27;;;24.02;;
51949;SDS011;37974;53.218;6.640;2023-03-01T06:56:37;70.03;;;18.55;;
51949;SDS011;37974;53.218;6.640;2023-03-01T06:59:02;114.47;;;20.10;;
51949;SDS011;37974;53.218;6.640;2023-03-01T07:01:28;82.72;;;20.60;;
51949;SDS011;37974;53.218;6.640;2023-03-01T07:03:54;50.90;;;19.58;;
51949;SDS011;37974;53.218;6.640;2023-03-01T07:06:20;49.80;;;18.83;;
51949;SDS011;37974;53.218;6.640;2023-03-01T07:08:46;29.42;;;19.10;;
51949;SDS011;37974;53.218;6.640;2023-03-01T07:11:13;32.88;;;20.23;;
51949;SDS011;37974;53.218;6.640;2023-03-01T07:13:38;37.13;;;21.23;;
51949;SDS011;37974;53.218;6.640;2023-03-01T07:16:05;33.70;;;19.58;;
51949;SDS011;37974;53.218;6.640;2023-03-01T07:18:31;36.40;;;21.40;;
51949;SDS011;37974;53.218;6.640;2023-03-01T07:20:56;36.17;;;20.08;;
51949;SDS011;37974;53.218;6.640;2023-03-01T07:23:22;31.35;;;19.60;;
51949;SDS011;37974;53.218;6.640;2023-03-01T07:25:52;29.15;;;18.27;;
51949;SDS011;37974;53.218;6.640;2023-03-01T07:28:19;26.95;;;16.02;;
51949;SDS011;37974;53.218;6.640;2023-03-01T07:30:45;27.52;;;16.92;;
51949;SDS011;37974;53.218;6.640;2023-03-01T07:33:11;22.85;;;15.38;;
51949;SDS011;37974;53.218;6.640;2023-03-01T07:35:36;21.33;;;14.88;;
51949;SDS011;37974;53.218;6.640;2023-03-01T07:38:02;19.85;;;14.05;;
51949;SDS011;37974;53.218;6.640;2023-03-01T07:40:28;29.88;;;15.98;;
51949;SDS011;37974;53.218;6.640;2023-03-01T07:42:55;57.95;;;18.92;;
51949;SDS011;37974;53.218;6.640;2023-03-01T07:45:23;67.43;;;21.88;;
51949;SDS011;37974;53.218;6.640;2023-03-01T07:47:50;69.80;;;22.17;;
51949;SDS011;37974;53.218;6.640;2023-03-01T07:50:17;41.28;;;16.00;;
51949;SDS011;37974;53.218;6.640;2023-03-01T07:52:44;21.20;;;15.32;;
51949;SDS011;37974;53.218;6.640;2023-03-01T07:55:11;22.52;;;13.98;;
51949;SDS011;37974;53.218;6.640;2023-03-01T07:57:37;25.35;;;15.02;;
51949;SDS011;37974;53.218;6.640;2023-03-01T08:00:03;47.15;;;17.58;;
51949;SDS011;37974;53.218;6.640;2023-03-01T08:02:30;37.05;;;16.45;;
51949;SDS011;37974;53.218;6.640;2023-03-01T08:04:56;43.28;;;17.95;;
51949;SDS011;37974;53.218;6.640;2023-03-01T08:07:22;41.72;;;16.73;;
51949;SDS011;37974;53.218;6.640;2023-03-01T08:09:47;77.50;;;17.95;;
51949;SDS011;37974;53.218;6.640;2023-03-01T08:12:13;64.88;;;19.20;;
51949;SDS011;37974;53.218;6.640;2023-03-01T08:14:41;98.70;;;22.63;;
51949;SDS011;37974;53.218;6.640;2023-03-01T08:17:07;84.78;;;21.45;;
51949;SDS011;37974;53.218;6.640;2023-03-01T08:19:33;55.95;;;19.90;;
51949;SDS011;37974;53.218;6.640;2023-03-01T08:22:00;62.13;;;24.27;;
51949;SDS011;37974;53.218;6.640;2023-03-01T08:24:27;61.58;;;20.45;;
51949;SDS011;37974;53.218;6.640;2023-03-01T08:26:53;59.30;;;21.40;;
51949;SDS011;37974;53.218;6.640;2023-03-01T08:29:20;41.97;;;22.27;;
51949;SDS011;37974;53.218;6.640;2023-03-01T08:31:46;36.63;;;20.40;;
51949;SDS011;37974;53.218;6.640;2023-03-01T08:34:14;34.25;;;19.55;;
51949;SDS011;37974;53.218;6.640;2023-03-01T08:39:44;35.97;;;23.00;;
51949;SDS011;37974;53.218;6.640;2023-03-01T08:42:09;36.15;;;22.45;;
51949;SDS011;37974;53.218;6.640;2023-03-01T08:44:35;34.00;;;21.33;;
51949;SDS011;37974;53.218;6.640;2023-03-01T08:47:01;39.08;;;23.13;;
51949;SDS011;37974;53.218;6.640;2023-03-01T08:49:27;35.22;;;22.30;;
51949;SDS011;37974;53.218;6.640;2023-03-01T08:51:53;37.22;;;24.08;;
51949;SDS011;37974;53.218;6.640;2023-03-01T08:54:20;41.58;;;25.00;;
51949;SDS011;37974;53.218;6.640;2023-03-01T08:56:47;43.17;;;24.45;;
51949;SDS011;37974;53.218;6.640;2023-03-01T08:59:14;38.95;;;24.70;;
51949;SDS011;37974;53.218;6.640;2023-03-01T09:01:41;49.28;;;28.10;;
51949;SDS011;37974;53.218;6.640;2023-03-01T09:04:10;47.13;;;29.55;;
51949;SDS011;37974;53.218;6.640;2023-03-01T09:06:37;50.40;;;31.95;;
51949;SDS011;37974;53.218;6.640;2023-03-01T09:09:03;51.83;;;32.30;;
51949;SDS011;37974;53.218;6.640;2023-03-01T09:11:30;60.13;;;35.33;;
51949;SDS011;37974;53.218;6.640;2023-03-01T09:13:56;58.10;;;35.35;;
51949;SDS011;37974;53.218;6.640;2023-03-01T09:16:22;61.33;;;38.38;;
51949;SDS011;37974;53.218;6.640;2023-03-01T09:18:49;65.32;;;39.55;;
51949;SDS011;37974;53.218;6.640;2023-03-01T09:21:17;63.78;;;40.03;;
51949;SDS011;37974;53.218;6.640;2023-03-01T09:23:46;61.55;;;37.60;;
51949;SDS011;37974;53.218;6.640;2023-03-01T09:26:13;57.88;;;37.38;;
51949;SDS011;37974;53.218;6.640;2023-03-01T09:28:42;60.58;;;36.65;;
51949;SDS011;37974;53.218;6.640;2023-03-01T09:31:09;51.42;;;31.30;;
51949;SDS011;37974;53.218;6.640;2023-03-01T09:33:38;45.80;;;30.10;;
51949;SDS011;37974;53.218;6.640;2023-03-01T09:36:08;42.65;;;29.30;;
51949;SDS011;37974;53.218;6.640;2023-03-01T09:38:38;46.85;;;30.33;;
51949;SDS011;37974;53.218;6.640;2023-03-01T09:41:19;43.85;;;29.83;;
51949;SDS011;37974;53.218;6.640;2023-03-01T09:44:07;43.08;;;28.38;;
51949;SDS011;37974;53.218;6.640;2023-03-01T09:46:42;41.13;;;29.10;;
51949;SDS011;37974;53.218;6.640;2023-03-01T09:49:14;45.72;;;29.00;;
51949;SDS011;37974;53.218;6.640;2023-03-01T09:51:54;39.42;;;27.40;;
51949;SDS011;37974;53.218;6.640;2023-03-01T09:54:27;41.15;;;28.73;;
51949;SDS011;37974;53.218;6.640;2023-03-01T09:56:57;41.50;;;27.13;;
51949;SDS011;37974;53.218;6.640;2023-03-01T09:59:45;36.80;;;26.25;;
51949;SDS011;37974;53.218;6.640;2023-03-01T10:02:25;35.42;;;24.50;;
51949;SDS011;37974;53.218;6.640;2023-03-01T10:04:54;32.25;;;23.67;;
51949;SDS011;37974;53.218;6.640;2023-03-01T10:10:15;36.97;;;26.27;;
51949;SDS011;37974;53.218;6.640;2023-03-01T10:12:53;41.72;;;27.40;;
51949;SDS011;37974;53.218;6.640;2023-03-01T10:15:28;37.75;;;23.27;;
51949;SDS011;37974;53.218;6.640;2023-03-01T10:18:06;32.50;;;20.05;;
51949;SDS011;37974;53.218;6.640;2023-03-01T10:25:47;28.38;;;21.77;;
51949;SDS011;37974;53.218;6.640;2023-03-01T10:28:41;32.72;;;23.13;;
51949;SDS011;37974;53.218;6.640;2023-03-01T10:31:27;33.28;;;21.13;;
51949;SDS011;37974;53.218;6.640;2023-03-01T10:34:07;31.67;;;19.98;;
51949;SDS011;37974;53.218;6.640;2023-03-01T10:36:36;29.08;;;21.15;;
51949;SDS011;37974;53.218;6.640;2023-03-01T10:39:10;31.38;;;21.13;;
51949;SDS011;37974;53.218;6.640;2023-03-01T10:41:44;33.88;;;22.23;;
51949;SDS011;37974;53.218;6.640;2023-03-01T10:47:08;31.45;;;21.02;;
51949;SDS011;37974;53.218;6.640;2023-03-01T10:49:39;30.60;;;20.60;;
51949;SDS011;37974;53.218;6.640;2023-03-01T10:52:18;28.58;;;20.63;;
51949;SDS011;37974;53.218;6.640;2023-03-01T10:54:52;29.10;;;21.20;;
51949;SDS011;37974;53.218;6.640;2023-03-01T10:57:32;29.52;;;20.98;;
51949;SDS011;37974;53.218;6.640;2023-03-01T11:02:38;31.05;;;22.45;;
51949;SDS011;37974;53.218;6.640;2023-03-01T11:07:47;32.67;;;20.80;;
51949;SDS011;37974;53.218;6.640;2023-03-01T11:10:17;29.95;;;22.08;;
51949;SDS011;37974;53.218;6.640;2023-03-01T11:12:44;31.83;;;22.20;;
51949;SDS011;37974;53.218;6.640;2023-03-01T11:15:19;29.02;;;21.70;;
51949;SDS011;37974;53.218;6.640;2023-03-01T11:17:47;28.58;;;22.02;;
51949;SDS011;37974;53.218;6.640;2023-03-01T11:22:47;24.08;;;17.58;;
51949;SDS011;37974;53.218;6.640;2023-03-01T11:25:19;28.10;;;19.50;;
51949;SDS011;37974;53.218;6.640;2023-03-01T11:27:51;25.92;;;18.65;;
51949;SDS011;37974;53.218;6.640;2023-03-01T11:30:23;26.80;;;19.63;;
51949;SDS011;37974;53.218;6.640;2023-03-01T11:33:11;33.05;;;22.48;;
51949;SDS011;37974;53.218;6.640;2023-03-01T11:36:05;28.63;;;20.65;;
51949;SDS011;37974;53.218;6.640;2023-03-01T11:38:38;29.48;;;21.35;;
51949;SDS011;37974;53.218;6.640;2023-03-01T11:41:15;29.45;;;22.55;;
51949;SDS011;37974;53.218;6.640;2023-03-01T11:51:33;22.77;;;13.90;;
51949;SDS011;37974;53.218;6.640;2023-03-01T11:56:50;26.10;;;19.27;;
51949;SDS011;37974;53.218;6.640;2023-03-01T12:02:07;26.40;;;18.10;;
51949;SDS011;37974;53.218;6.640;2023-03-01T12:05:08;23.98;;;17.80;;
51949;SDS011;37974;53.218;6.640;2023-03-01T12:10:20;25.25;;;17.73;;
51949;SDS011;37974;53.218;6.640;2023-03-01T12:12:54;24.85;;;18.00;;
51949;SDS011;37974;53.218;6.640;2023-03-01T12:15:33;24.30;;;18.30;;
51949;SDS011;37974;53.218;6.640;2023-03-01T12:18:16;23.88;;;16.92;;
51949;SDS011;37974;53.218;6.640;2023-03-01T12:23:54;22.33;;;14.80;;
51949;SDS011;37974;53.218;6.640;2023-03-01T12:26:42;26.35;;;16.92;;
51949;SDS011;37974;53.218;6.640;2023-03-01T12:29:24;22.73;;;15.23;;
51949;SDS011;37974;53.218;6.640;2023-03-01T12:31:59;19.40;;;13.55;;
51949;SDS011;37974;53.218;6.640;2023-03-01T12:37:54;19.30;;;12.75;;
51949;SDS011;37974;53.218;6.640;2023-03-01T12:45:45;16.67;;;11.65;;
51949;SDS011;37974;53.218;6.640;2023-03-01T12:48:34;17.08;;;11.60;;
51949;SDS011;37974;53.218;6.640;2023-03-01T12:51:28;15.98;;;12.30;;
51949;SDS011;37974;53.218;6.640;2023-03-01T12:53:57;21.33;;;11.70;;
51949;SDS011;37974;53.218;6.640;2023-03-01T12:56:27;17.67;;;13.10;;
51949;SDS011;37974;53.218;6.640;2023-03-01T13:01:31;16.52;;;11.43;;
51949;SDS011;37974;53.218;6.640;2023-03-01T13:04:18;16.23;;;11.43;;
51949;SDS011;37974;53.218;6.640;2023-03-01T13:13:18;18.23;;;11.82;;
51949;SDS011;37974;53.218;6.640;2023-03-01T13:15:46;18.30;;;11.52;;
51949;SDS011;37974;53.218;6.640;2023-03-01T13:18:35;18.00;;;12.50;;
51949;SDS011;37974;53.218;6.640;2023-03-01T13:21:01;18.58;;;12.27;;
51949;SDS011;37974;53.218;6.640;2023-03-01T13:23:30;18.08;;;12.23;;
51949;SDS011;37974;53.218;6.640;2023-03-01T13:26:08;19.35;;;12.65;;
51949;SDS011;37974;53.218;6.640;2023-03-01T13:28:41;17.55;;;12.10;;
51949;SDS011;37974;53.218;6.640;2023-03-01T13:33:55;17.80;;;12.50;;
51949;SDS011;37974;53.218;6.640;2023-03-01T13:36:53;16.15;;;11.88;;
51949;SDS011;37974;53.218;6.640;2023-03-01T13:39:27;18.95;;;11.85;;
51949;SDS011;37974;53.218;6.640;2023-03-01T13:41:57;13.38;;;10.52;;
51949;SDS011;37974;53.218;6.640;2023-03-01T13:44:29;17.23;;;11.68;;
51949;SDS011;37974;53.218;6.640;2023-03-01T13:47:02;17.23;;;11.25;;
51949;SDS011;37974;53.218;6.640;2023-03-01T13:49:48;15.50;;;10.15;;
51949;SDS011;37974;53.218;6.640;2023-03-01T13:52:39;18.15;;;11.07;;
51949;SDS011;37974;53.218;6.640;2023-03-01T13:57:51;17.80;;;11.80;;
51949;SDS011;37974;53.218;6.640;2023-03-01T14:00:25;17.20;;;10.80;;
51949;SDS011;37974;53.218;6.640;2023-03-01T14:02:59;14.27;;;11.23;;
51949;SDS011;37974;53.218;6.640;2023-03-01T14:05:37;16.20;;;12.02;;
51949;SDS011;37974;53.218;6.640;2023-03-01T14:08:05;18.17;;;12.00;;
51949;SDS011;37974;53.218;6.640;2023-03-01T14:10:54;19.00;;;12.63;;
51949;SDS011;37974;53.218;6.640;2023-03-01T14:16:35;17.50;;;12.98;;
51949;SDS011;37974;53.218;6.640;2023-03-01T14:19:26;18.33;;;12.52;;
51949;SDS011;37974;53.218;6.640;2023-03-01T14:22:03;22.23;;;13.20;;
51949;SDS011;37974;53.218;6.640;2023-03-01T14:24:39;18.85;;;14.02;;
51949;SDS011;37974;53.218;6.640;2023-03-01T14:27:17;15.25;;;11.93;;
51949;SDS011;37974;53.218;6.640;2023-03-01T14:29:43;18.02;;;12.48;;
51949;SDS011;37974;53.218;6.640;2023-03-01T14:32:34;17.77;;;12.30;;
51949;SDS011;37974;53.218;6.640;2023-03-01T14:35:01;21.33;;;13.45;;
51949;SDS011;37974;53.218;6.640;2023-03-01T14:37:28;19.88;;;13.43;;
51949;SDS011;37974;53.218;6.640;2023-03-01T14:39:59;18.35;;;13.18;;
51949;SDS011;37974;53.218;6.640;2023-03-01T14:42:28;18.30;;;13.10;;
51949;SDS011;37974;53.218;6.640;2023-03-01T14:45:09;19.55;;;13.40;;
51949;SDS011;37974;53.218;6.640;2023-03-01T14:47:37;17.40;;;13.00;;
51949;SDS011;37974;53.218;6.640;2023-03-01T14:50:08;17.88;;;13.80;;
51949;SDS011;37974;53.218;6.640;2023-03-01T14:52:41;17.10;;;13.70;;
51949;SDS011;37974;53.218;6.640;2023-03-01T14:55:25;18.95;;;12.70;;
51949;SDS011;37974;53.218;6.640;2023-03-01T14:57:58;21.98;;;13.85;;
51949;SDS011;37974;53.218;6.640;2023-03-01T15:00:25;20.95;;;13.02;;
51949;SDS011;37974;53.218;6.640;2023-03-01T15:02:53;19.75;;;13.38;;
51949;SDS011;37974;53.218;6.640;2023-03-01T15:05:25;19.15;;;13.38;;
51949;SDS011;37974;53.218;6.640;2023-03-01T15:07:55;18.10;;;12.68;;
51949;SDS011;37974;53.218;6.640;2023-03-01T15:10:24;17.08;;;12.98;;
51949;SDS011;37974;53.218;6.640;2023-03-01T15:12:52;18.17;;;12.90;;
51949;SDS011;37974;53.218;6.640;2023-03-01T15:15:19;20.52;;;14.18;;
51949;SDS011;37974;53.218;6.640;2023-03-01T15:20:20;19.33;;;13.35;;
51949;SDS011;37974;53.218;6.640;2023-03-01T15:23:05;17.33;;;12.45;;
51949;SDS011;37974;53.218;6.640;2023-03-01T15:25:43;21.25;;;12.85;;
51949;SDS011;37974;53.218;6.640;2023-03-01T15:28:12;22.00;;;13.95;;
51949;SDS011;37974;53.218;6.640;2023-03-01T15:30:45;20.25;;;13.50;;
51949;SDS011;37974;53.218;6.640;2023-03-01T15:33:19;21.53;;;13.87;;
51949;SDS011;37974;53.218;6.640;2023-03-01T15:35:55;19.02;;;13.25;;
51949;SDS011;37974;53.218;6.640;2023-03-01T15:38:24;22.77;;;14.40;;
51949;SDS011;37974;53.218;6.640;2023-03-01T15:40:58;18.83;;;13.38;;
51949;SDS011;37974;53.218;6.640;2023-03-01T15:43:40;20.70;;;13.43;;
51949;SDS011;37974;53.218;6.640;2023-03-01T15:46:16;20.70;;;14.27;;
51949;SDS011;37974;53.218;6.640;2023-03-01T15:48:46;20.98;;;13.98;;
51949;SDS011;37974;53.218;6.640;2023-03-01T15:51:27;17.20;;;13.23;;
51949;SDS011;37974;53.218;6.640;2023-03-01T15:53:57;19.65;;;14.27;;
51949;SDS011;37974;53.218;6.640;2023-03-01T15:56:25;18.85;;;14.60;;